Kankakee, IL

7:27 AM CST on December 06, 2019 (GMT -0600)
Greater Kankakee

Weather History for KIKK - October, 2019

Change the Weather History Date:

Friday, October 4, 2019

  Actual Average Record
Temperature  
Mean Temperature 54 °F -  
Max Temperature 64 °F 71 °F 89 °F (2007)
Min Temperature 45 °F 44 °F 28 °F (1989)
Degree Days  
Heating Degree Days 11    
Growing Degree Days 4 (Base 50)    
Moisture  
Dew Point 45 °F    
Average Humidity 75    
Maximum Humidity 90    
Minimum Humidity 52    
Precipitation  
Precipitation 0.00 in - - ()
Sea Level Pressure  
Sea Level Pressure 30.34 in    
Wind  
Wind Speed 7 mph (NNE)    
Max Wind Speed 17 mph    
Max Gust Speed 22 mph    
Visibility 10 miles    
Events      
Averages and records for this station are not official NWS values.
T = Trace of Precipitation, MM = Missing Value Source: NWS Daily Summary

Daily Weather History Graph

Daily Weather History Graph

Search for Another Location

Airport or City:

Astronomy

Oct. 04, 2019 Rise Set
Actual Time 6:50 AM CDT 6:28 PM CDT
Civil Twilight 6:23 AM CDT 6:56 PM CDT
Nautical Twilight 5:51 AM CDT 7:27 PM CDT
Astronomical Twilight 5:19 AM CDT 7:59 PM CDT
Moon 1:25 PM CDT (10/4) 10:54 PM CDT (10/4)
Length of Visible Light 12h 32m
Length of Day
11h 37m
Waxing Crescent, 40% of the Moon is Illuminated
Oct 4
Waxing Crescent
Oct 5
First Quarter
Oct 13
Full
Oct 21
Last Quarter
Oct 27
New

Hourly Weather History & Observations

Time (CDT) Temp. Windchill Dew Point Humidity Pressure Visibility Wind Dir Wind Speed Gust Speed Precip Events Conditions
12:15 AM 50.0 °F - 45.1 °F 83% 30.28 in 10.0 mi NNW 5.8 mph - N/A   Clear
12:35 AM 50.2 °F - 45.0 °F 82% 30.28 in 10.0 mi NW 4.6 mph - N/A   Clear
12:55 AM 49.6 °F - 45.0 °F 84% 30.28 in 10.0 mi NW 4.6 mph - N/A   Clear
1:15 AM 49.3 °F - 44.8 °F 84% 30.29 in 10.0 mi NW 4.6 mph - N/A   Clear
1:35 AM 49.1 °F - 45.1 °F 86% 30.29 in 10.0 mi NW 5.8 mph - N/A   Clear
1:55 AM 48.9 °F - 45.0 °F 86% 30.30 in 10.0 mi NW 5.8 mph - N/A   Clear
2:15 AM 48.4 °F - 44.6 °F 87% 30.30 in 10.0 mi NNW 5.8 mph - N/A   Clear
2:35 AM 48.2 °F - 44.1 °F 86% 30.31 in 10.0 mi North 8.1 mph - N/A   Clear
2:55 AM 48.2 °F - 43.7 °F 84% 30.31 in 10.0 mi North 10.4 mph - N/A   Clear
3:15 AM 47.8 °F - 43.7 °F 86% 30.31 in 10.0 mi NNW 6.9 mph - N/A   Clear
3:35 AM 47.3 °F - 43.7 °F 87% 30.31 in 10.0 mi North 6.9 mph - N/A   Clear
3:55 AM 46.8 °F - 43.7 °F 89% 30.32 in 10.0 mi NNW 8.1 mph - N/A   Clear
4:15 AM 46.6 °F - 43.2 °F 88% 30.32 in 10.0 mi North 5.8 mph - N/A   Clear
4:35 AM 46.6 °F - 43.0 °F 87% 30.32 in 10.0 mi North 5.8 mph - N/A   Clear
4:55 AM 46.0 °F 43.1 °F 42.8 °F 88% 30.33 in 10.0 mi North 5.8 mph - N/A   Clear
5:15 AM 46.0 °F 43.1 °F 42.4 °F 87% 30.33 in 10.0 mi North 5.8 mph - N/A   Scattered Clouds
5:35 AM 45.5 °F 42.5 °F 42.4 °F 89% 30.34 in 10.0 mi NNW 5.8 mph - N/A   Clear
5:55 AM 45.5 °F 43.2 °F 42.4 °F 89% 30.34 in 10.0 mi NNW 4.6 mph - N/A   Clear
6:15 AM 45.7 °F 44.4 °F 42.6 °F 89% 30.35 in 10.0 mi NNW 3.5 mph - N/A   Clear
6:35 AM 45.5 °F 44.2 °F 42.8 °F 90% 30.35 in 10.0 mi NW 3.5 mph - N/A   Clear
6:55 AM 45.5 °F 43.2 °F 42.8 °F 90% 30.36 in 10.0 mi NNW 4.6 mph - N/A   Clear
7:15 AM 46.0 °F 44.8 °F 43.2 °F 90% 30.37 in 10.0 mi NNW 3.5 mph - N/A   Clear
7:35 AM 47.3 °F - 43.2 °F 86% 30.37 in 10.0 mi NNW 4.6 mph - N/A   Clear
7:55 AM 48.4 °F - 43.7 °F 84% 30.37 in 10.0 mi North 5.8 mph - N/A   Clear
8:15 AM 48.6 °F - 44.1 °F 84% 30.38 in 10.0 mi NNW 4.6 mph - N/A   Scattered Clouds
8:35 AM 49.3 °F - 45.1 °F 86% 30.38 in 10.0 mi North 3.5 mph - N/A   Mostly Cloudy
8:55 AM 51.1 °F - 46.2 °F 83% 30.38 in 10.0 mi North 5.8 mph - N/A   Overcast
9:15 AM 52.3 °F - 46.9 °F 82% 30.39 in 10.0 mi North 6.9 mph - N/A   Overcast
9:35 AM 53.8 °F - 48.2 °F 81% 30.39 in 10.0 mi North 9.2 mph - N/A   Overcast
9:55 AM 55.9 °F - 48.9 °F 77% 30.39 in 10.0 mi NNE 11.5 mph - N/A   Mostly Cloudy
10:15 AM 57.7 °F - 49.1 °F 73% 30.39 in 10.0 mi NNE 9.2 mph - N/A   Mostly Cloudy
10:35 AM 58.8 °F - 48.6 °F 69% 30.39 in 10.0 mi ENE 9.2 mph - N/A   Scattered Clouds
10:55 AM 60.3 °F - 48.2 °F 64% 30.39 in 10.0 mi ENE 8.1 mph - N/A   Scattered Clouds
11:15 AM 60.3 °F - 47.3 °F 62% 30.39 in 10.0 mi ENE 10.4 mph - N/A   Scattered Clouds
11:35 AM 62.2 °F - 48.6 °F 61% 30.39 in 10.0 mi East 10.4 mph 16.1 mph N/A   Overcast
11:55 AM 60.3 °F - 46.9 °F 61% 30.38 in 10.0 mi ENE 9.2 mph - N/A   Overcast
12:15 PM 62.1 °F - 45.9 °F 55% 30.37 in 10.0 mi NE 15.0 mph - N/A   Overcast
12:35 PM 62.8 °F - 45.3 °F 53% 30.37 in 10.0 mi NE 11.5 mph 16.1 mph N/A   Mostly Cloudy
12:55 PM 63.3 °F - 45.1 °F 52% 30.37 in 10.0 mi East 11.5 mph - N/A   Mostly Cloudy
1:15 PM 62.6 °F - 45.3 °F 53% 30.36 in 10.0 mi ENE 10.4 mph - N/A   Mostly Cloudy
1:35 PM 62.8 °F - 45.1 °F 53% 30.35 in 10.0 mi NE 16.1 mph 21.9 mph N/A   Mostly Cloudy
1:55 PM 62.6 °F - 44.6 °F 52% 30.35 in 10.0 mi NNE 13.8 mph - N/A   Mostly Cloudy
2:15 PM 61.9 °F - 43.9 °F 52% 30.35 in 10.0 mi NNE 12.7 mph 17.3 mph N/A   Overcast
2:35 PM 61.2 °F - 44.8 °F 55% 30.35 in 10.0 mi NE 10.4 mph - N/A   Overcast
2:55 PM 60.8 °F - 45.3 °F 57% 30.35 in 10.0 mi NE 12.7 mph 16.1 mph N/A   Overcast
3:15 PM 61.0 °F - 46.2 °F 58% 30.35 in 10.0 mi NNE 12.7 mph - N/A   Overcast
3:35 PM 60.3 °F - 44.8 °F 57% 30.34 in 10.0 mi NE 10.4 mph - N/A   Overcast
3:55 PM 59.7 °F - 45.5 °F 59% 30.34 in 10.0 mi NE 17.3 mph - N/A   Overcast
4:15 PM 59.0 °F - 44.2 °F 58% 30.34 in 10.0 mi NE 12.7 mph - N/A   Overcast
4:35 PM 59.5 °F - 43.7 °F 56% 30.34 in 10.0 mi NE 10.4 mph - N/A   Overcast
4:55 PM 58.3 °F - 44.2 °F 60% 30.34 in 10.0 mi NE 11.5 mph - N/A   Overcast
5:15 PM 58.3 °F - 43.3 °F 58% 30.34 in 10.0 mi NE 12.7 mph 19.6 mph N/A   Overcast
5:35 PM 57.2 °F - 43.3 °F 60% 30.33 in 10.0 mi ENE 12.7 mph - N/A   Mostly Cloudy
5:55 PM 57.2 °F - 43.5 °F 60% 30.33 in 10.0 mi NE 9.2 mph 17.3 mph N/A   Clear
6:15 PM 56.3 °F - 43.7 °F 63% 30.33 in 10.0 mi NE 10.4 mph - N/A   Clear
6:35 PM 55.0 °F - 44.1 °F 67% 30.34 in 10.0 mi NE 8.1 mph - N/A   Clear
6:55 PM 54.0 °F - 43.9 °F 69% 30.33 in 10.0 mi NE 8.1 mph - N/A   Clear
7:15 PM 52.9 °F - 43.9 °F 71% 30.34 in 10.0 mi NE 8.1 mph - N/A   Clear
7:35 PM 51.8 °F - 44.2 °F 75% 30.33 in 10.0 mi NE 5.8 mph - N/A   Clear
7:55 PM 51.1 °F - 44.8 °F 79% 30.33 in 10.0 mi NE 6.9 mph - N/A   Clear
8:15 PM 51.4 °F - 44.6 °F 77% 30.34 in 10.0 mi NE 6.9 mph - N/A   Clear
8:35 PM 50.2 °F - 44.6 °F 81% 30.34 in 10.0 mi ENE 4.6 mph - N/A   Clear
8:55 PM 50.0 °F - 44.6 °F 82% 30.34 in 10.0 mi ENE 5.8 mph - N/A   Clear
9:15 PM 49.6 °F - 44.2 °F 82% 30.33 in 10.0 mi ENE 6.9 mph - N/A   Clear
9:35 PM 49.3 °F - 43.9 °F 82% 30.33 in 10.0 mi ENE 4.6 mph - N/A   Clear
9:55 PM 48.6 °F - 43.9 °F 84% 30.32 in 10.0 mi East 5.8 mph - N/A   Clear
10:15 PM 49.1 °F - 44.1 °F 83% 30.32 in 10.0 mi East 5.8 mph - N/A   Clear
10:35 PM 48.9 °F - 44.1 °F 83% 30.32 in 10.0 mi ENE 5.8 mph - N/A   Clear
10:55 PM 48.9 °F - 44.2 °F 84% 30.32 in 10.0 mi East 6.9 mph - N/A   Clear
11:15 PM 48.7 °F - 44.1 °F 84% 30.31 in 10.0 mi East 8.1 mph - N/A   Clear
11:35 PM 48.6 °F - 43.7 °F 83% 30.30 in 10.0 mi East 5.8 mph - N/A   Clear
11:55 PM 48.2 °F - 43.2 °F 83% 30.30 in 10.0 mi East 6.9 mph - N/A   Clear